sensor_id;sensor_type;location;lat;lon;timestamp;temperature;humidity
71839;SHT31;59687;37.520;15.068;2023-02-01T00:01:06;7.87;65.89
71839;SHT31;59687;37.520;15.068;2023-02-01T00:03:37;8.09;65.87
71839;SHT31;59687;37.520;15.068;2023-02-01T00:06:04;7.76;66.09
71839;SHT31;59687;37.520;15.068;2023-02-01T00:08:31;7.81;65.61
71839;SHT31;59687;37.520;15.068;2023-02-01T00:11:07;7.99;64.04
71839;SHT31;59687;37.520;15.068;2023-02-01T00:13:36;8.06;64.01
71839;SHT31;59687;37.520;15.068;2023-02-01T00:16:09;7.81;63.89
71839;SHT31;59687;37.520;15.068;2023-02-01T00:18:36;7.82;64.39
71839;SHT31;59687;37.520;15.068;2023-02-01T00:21:04;8.07;63.37
71839;SHT31;59687;37.520;15.068;2023-02-01T00:23:33;8.16;63.31
71839;SHT31;59687;37.520;15.068;2023-02-01T00:26:02;8.07;62.85
71839;SHT31;59687;37.520;15.068;2023-02-01T00:28:29;7.86;64.08
71839;SHT31;59687;37.520;15.068;2023-02-01T00:30:58;7.89;63.70
71839;SHT31;59687;37.520;15.068;2023-02-01T00:33:33;7.78;63.56
71839;SHT31;59687;37.520;15.068;2023-02-01T00:36:05;7.76;64.25
71839;SHT31;59687;37.520;15.068;2023-02-01T00:38:34;7.71;63.93
71839;SHT31;59687;37.520;15.068;2023-02-01T00:41:07;8.00;63.68
71839;SHT31;59687;37.520;15.068;2023-02-01T00:43:36;8.09;63.46
71839;SHT31;59687;37.520;15.068;2023-02-01T00:46:04;8.03;63.12
71839;SHT31;59687;37.520;15.068;2023-02-01T00:48:34;7.89;62.92
71839;SHT31;59687;37.520;15.068;2023-02-01T00:51:12;8.00;63.74
71839;SHT31;59687;37.520;15.068;2023-02-01T00:53:41;7.87;63.53
71839;SHT31;59687;37.520;15.068;2023-02-01T00:56:11;7.64;64.32
71839;SHT31;59687;37.520;15.068;2023-02-01T00:58:39;7.50;65.25
71839;SHT31;59687;37.520;15.068;2023-02-01T01:01:16;7.64;65.19
71839;SHT31;59687;37.520;15.068;2023-02-01T01:03:54;7.64;64.32
71839;SHT31;59687;37.520;15.068;2023-02-01T01:06:27;7.65;63.77
71839;SHT31;59687;37.520;15.068;2023-02-01T01:09:04;7.92;64.21
71839;SHT31;59687;37.520;15.068;2023-02-01T01:11:35;7.97;63.59
71839;SHT31;59687;37.520;15.068;2023-02-01T01:14:06;8.00;62.73
71839;SHT31;59687;37.520;15.068;2023-02-01T01:16:35;8.07;62.69
71839;SHT31;59687;37.520;15.068;2023-02-01T01:19:02;8.16;61.87
71839;SHT31;59687;37.520;15.068;2023-02-01T01:21:30;8.07;61.92
71839;SHT31;59687;37.520;15.068;2023-02-01T01:23:58;8.09;61.35
71839;SHT31;59687;37.520;15.068;2023-02-01T01:26:28;8.13;61.42
71839;SHT31;59687;37.520;15.068;2023-02-01T01:28:57;8.30;60.68
71839;SHT31;59687;37.520;15.068;2023-02-01T01:31:27;8.28;60.49
71839;SHT31;59687;37.520;15.068;2023-02-01T01:33:57;8.26;61.03
71839;SHT31;59687;37.520;15.068;2023-02-01T01:36:25;8.26;60.45
71839;SHT31;59687;37.520;15.068;2023-02-01T01:38:55;8.28;60.67
71839;SHT31;59687;37.520;15.068;2023-02-01T01:41:25;8.31;60.96
71839;SHT31;59687;37.520;15.068;2023-02-01T01:44:00;8.38;60.50
71839;SHT31;59687;37.520;15.068;2023-02-01T01:46:37;8.16;61.27
71839;SHT31;59687;37.520;15.068;2023-02-01T01:49:15;8.06;61.55
71839;SHT31;59687;37.520;15.068;2023-02-01T01:51:51;7.76;62.34
71839;SHT31;59687;37.520;15.068;2023-02-01T01:54:25;7.59;62.77
71839;SHT31;59687;37.520;15.068;2023-02-01T01:57:03;7.82;62.43
71839;SHT31;59687;37.520;15.068;2023-02-01T01:59:35;7.57;63.00
71839;SHT31;59687;37.520;15.068;2023-02-01T02:02:06;7.68;63.72
71839;SHT31;59687;37.520;15.068;2023-02-01T02:04:36;7.68;63.39
71839;SHT31;59687;37.520;15.068;2023-02-01T02:07:12;7.66;63.25
71839;SHT31;59687;37.520;15.068;2023-02-01T02:09:42;7.61;63.50
71839;SHT31;59687;37.520;15.068;2023-02-01T02:12:25;7.68;63.05
71839;SHT31;59687;37.520;15.068;2023-02-01T02:14:52;7.61;63.13
71839;SHT31;59687;37.520;15.068;2023-02-01T02:17:52;7.61;63.32
71839;SHT31;59687;37.520;15.068;2023-02-01T02:20:39;7.65;63.39
71839;SHT31;59687;37.520;15.068;2023-02-01T02:40:15;7.61;63.97
71839;SHT31;59687;37.520;15.068;2023-02-01T02:43:41;7.61;63.85
71839;SHT31;59687;37.520;15.068;2023-02-01T02:46:24;7.59;63.82
71839;SHT31;59687;37.520;15.068;2023-02-01T02:49:23;7.64;63.55
71839;SHT31;59687;37.520;15.068;2023-02-01T02:51:58;7.48;63.61
71839;SHT31;59687;37.520;15.068;2023-02-01T02:54:47;7.37;64.04
71839;SHT31;59687;37.520;15.068;2023-02-01T02:57:35;7.38;64.10
71839;SHT31;59687;37.520;15.068;2023-02-01T03:00:28;7.21;65.03
71839;SHT31;59687;37.520;15.068;2023-02-01T03:03:15;7.19;65.63
71839;SHT31;59687;37.520;15.068;2023-02-01T03:06:00;6.95;66.56
71839;SHT31;59687;37.520;15.068;2023-02-01T03:08:32;7.04;66.45
71839;SHT31;59687;37.520;15.068;2023-02-01T03:21:52;7.06;66.85
71839;SHT31;59687;37.520;15.068;2023-02-01T03:24:41;7.23;66.23
71839;SHT31;59687;37.520;15.068;2023-02-01T03:27:23;7.12;66.72
71839;SHT31;59687;37.520;15.068;2023-02-01T03:30:55;7.07;66.85
71839;SHT31;59687;37.520;15.068;2023-02-01T03:33:23;7.07;66.41
71839;SHT31;59687;37.520;15.068;2023-02-01T03:44:38;6.84;67.32
71839;SHT31;59687;37.520;15.068;2023-02-01T03:47:13;6.91;67.01
71839;SHT31;59687;37.520;15.068;2023-02-01T03:49:44;7.14;66.46
71839;SHT31;59687;37.520;15.068;2023-02-01T03:52:17;7.07;66.39
71839;SHT31;59687;37.520;15.068;2023-02-01T03:54:48;7.20;66.10
71839;SHT31;59687;37.520;15.068;2023-02-01T03:57:22;7.10;66.27
71839;SHT31;59687;37.520;15.068;2023-02-01T03:59:52;7.13;66.39
71839;SHT31;59687;37.520;15.068;2023-02-01T04:02:19;7.03;66.59
71839;SHT31;59687;37.520;15.068;2023-02-01T04:04:48;7.24;66.04
71839;SHT31;59687;37.520;15.068;2023-02-01T04:07:17;7.21;66.26
71839;SHT31;59687;37.520;15.068;2023-02-01T04:09:45;7.14;65.98
71839;SHT31;59687;37.520;15.068;2023-02-01T04:12:16;7.12;66.50
71839;SHT31;59687;37.520;15.068;2023-02-01T04:14:45;6.93;66.74
71839;SHT31;59687;37.520;15.068;2023-02-01T04:17:13;6.96;66.49
71839;SHT31;59687;37.520;15.068;2023-02-01T04:19:44;6.96;66.53
71839;SHT31;59687;37.520;15.068;2023-02-01T04:22:11;7.12;66.11
71839;SHT31;59687;37.520;15.068;2023-02-01T04:24:38;7.07;66.11
71839;SHT31;59687;37.520;15.068;2023-02-01T04:27:05;6.95;66.43
71839;SHT31;59687;37.520;15.068;2023-02-01T04:29:32;7.12;66.22
71839;SHT31;59687;37.520;15.068;2023-02-01T04:32:03;7.09;66.08
71839;SHT31;59687;37.520;15.068;2023-02-01T04:34:30;7.14;65.33
71839;SHT31;59687;37.520;15.068;2023-02-01T04:36:57;7.10;65.81
71839;SHT31;59687;37.520;15.068;2023-02-01T04:39:24;7.28;65.41
71839;SHT31;59687;37.520;15.068;2023-02-01T04:41:51;7.34;65.01
71839;SHT31;59687;37.520;15.068;2023-02-01T04:44:18;7.24;65.61
71839;SHT31;59687;37.520;15.068;2023-02-01T04:46:47;7.14;65.79
71839;SHT31;59687;37.520;15.068;2023-02-01T04:49:15;7.14;65.73
71839;SHT31;59687;37.520;15.068;2023-02-01T04:51:43;7.09;65.48
71839;SHT31;59687;37.520;15.068;2023-02-01T04:54:10;7.12;65.46
71839;SHT31;59687;37.520;15.068;2023-02-01T04:56:42;7.14;65.71
71839;SHT31;59687;37.520;15.068;2023-02-01T04:59:11;7.07;66.02
71839;SHT31;59687;37.520;15.068;2023-02-01T05:01:38;6.88;66.01
71839;SHT31;59687;37.520;15.068;2023-02-01T05:04:05;6.71;66.50
71839;SHT31;59687;37.520;15.068;2023-02-01T05:06:32;6.84;66.50
71839;SHT31;59687;37.520;15.068;2023-02-01T05:09:00;7.02;66.25
71839;SHT31;59687;37.520;15.068;2023-02-01T05:11:27;6.92;66.77
71839;SHT31;59687;37.520;15.068;2023-02-01T05:14:12;6.95;66.78
71839;SHT31;59687;37.520;15.068;2023-02-01T05:16:40;6.95;66.35
71839;SHT31;59687;37.520;15.068;2023-02-01T05:19:07;6.89;66.61
71839;SHT31;59687;37.520;15.068;2023-02-01T05:21:34;6.91;66.61
71839;SHT31;59687;37.520;15.068;2023-02-01T05:24:02;6.81;66.96
71839;SHT31;59687;37.520;15.068;2023-02-01T05:26:40;6.74;66.87
71839;SHT31;59687;37.520;15.068;2023-02-01T05:29:09;6.81;66.90
71839;SHT31;59687;37.520;15.068;2023-02-01T05:31:37;6.77;66.82
71839;SHT31;59687;37.520;15.068;2023-02-01T05:34:04;6.68;67.12
71839;SHT31;59687;37.520;15.068;2023-02-01T05:36:31;6.48;67.48
71839;SHT31;59687;37.520;15.068;2023-02-01T05:38:58;6.27;68.22
71839;SHT31;59687;37.520;15.068;2023-02-01T05:41:26;6.27;68.72
71839;SHT31;59687;37.520;15.068;2023-02-01T05:43:53;6.61;68.40
71839;SHT31;59687;37.520;15.068;2023-02-01T05:46:20;6.32;68.57
71839;SHT31;59687;37.520;15.068;2023-02-01T05:48:50;6.36;68.37
71839;SHT31;59687;37.520;15.068;2023-02-01T05:51:17;6.13;69.04
71839;SHT31;59687;37.520;15.068;2023-02-01T05:53:47;6.13;69.00
71839;SHT31;59687;37.520;15.068;2023-02-01T05:56:16;6.05;69.68
71839;SHT31;59687;37.520;15.068;2023-02-01T05:58:44;6.07;69.97
71839;SHT31;59687;37.520;15.068;2023-02-01T06:01:15;6.12;69.95
71839;SHT31;59687;37.520;15.068;2023-02-01T06:03:43;6.40;68.84
71839;SHT31;59687;37.520;15.068;2023-02-01T06:06:10;6.24;68.96
71839;SHT31;59687;37.520;15.068;2023-02-01T06:08:37;6.24;69.33
71839;SHT31;59687;37.520;15.068;2023-02-01T06:11:07;6.24;69.80
71839;SHT31;59687;37.520;15.068;2023-02-01T06:13:34;6.50;69.03
71839;SHT31;59687;37.520;15.068;2023-02-01T06:16:04;6.75;67.76
71839;SHT31;59687;37.520;15.068;2023-02-01T06:18:36;7.26;66.60
71839;SHT31;59687;37.520;15.068;2023-02-01T06:21:08;7.44;66.04
71839;SHT31;59687;37.520;15.068;2023-02-01T06:23:36;7.79;65.46
71839;SHT31;59687;37.520;15.068;2023-02-01T06:26:04;8.21;64.27
71839;SHT31;59687;37.520;15.068;2023-02-01T06:28:33;8.54;62.39
71839;SHT31;59687;37.520;15.068;2023-02-01T06:31:07;8.79;61.02
71839;SHT31;59687;37.520;15.068;2023-02-01T06:33:36;9.15;61.07
71839;SHT31;59687;37.520;15.068;2023-02-01T06:36:05;9.69;59.36
71839;SHT31;59687;37.520;15.068;2023-02-01T06:38:35;9.93;58.77
71839;SHT31;59687;37.520;15.068;2023-02-01T06:41:04;10.32;57.90
71839;SHT31;59687;37.520;15.068;2023-02-01T06:43:35;10.67;55.79
71839;SHT31;59687;37.520;15.068;2023-02-01T06:46:08;11.36;53.96
71839;SHT31;59687;37.520;15.068;2023-02-01T06:48:36;12.10;52.70
71839;SHT31;59687;37.520;15.068;2023-02-01T06:51:03;12.74;50.66
71839;SHT31;59687;37.520;15.068;2023-02-01T06:53:31;13.05;49.61
71839;SHT31;59687;37.520;15.068;2023-02-01T06:56:01;13.26;49.33
71839;SHT31;59687;37.520;15.068;2023-02-01T06:58:33;13.50;48.94
71839;SHT31;59687;37.520;15.068;2023-02-01T07:01:08;13.60;48.45
71839;SHT31;59687;37.520;15.068;2023-02-01T07:03:37;13.92;47.83
71839;SHT31;59687;37.520;15.068;2023-02-01T07:06:05;14.08;47.57
71839;SHT31;59687;37.520;15.068;2023-02-01T07:08:34;14.46;46.41
71839;SHT31;59687;37.520;15.068;2023-02-01T07:11:11;14.61;45.89
71839;SHT31;59687;37.520;15.068;2023-02-01T07:13:41;14.01;47.55
71839;SHT31;59687;37.520;15.068;2023-02-01T07:16:14;14.26;47.84
71839;SHT31;59687;37.520;15.068;2023-02-01T07:18:41;15.02;46.08
71839;SHT31;59687;37.520;15.068;2023-02-01T07:21:10;15.50;45.15
71839;SHT31;59687;37.520;15.068;2023-02-01T07:23:37;15.44;44.66
71839;SHT31;59687;37.520;15.068;2023-02-01T07:26:06;15.03;44.70
71839;SHT31;59687;37.520;15.068;2023-02-01T07:28:35;14.23;47.12
71839;SHT31;59687;37.520;15.068;2023-02-01T07:31:10;13.92;48.07
71839;SHT31;59687;37.520;15.068;2023-02-01T07:33:38;13.84;48.77
71839;SHT31;59687;37.520;15.068;2023-02-01T07:36:07;14.02;47.76
71839;SHT31;59687;37.520;15.068;2023-02-01T07:38:36;14.36;47.36
71839;SHT31;59687;37.520;15.068;2023-02-01T07:41:06;14.11;47.56
71839;SHT31;59687;37.520;15.068;2023-02-01T07:43:34;14.12;47.42
71839;SHT31;59687;37.520;15.068;2023-02-01T07:46:02;14.43;44.58
71839;SHT31;59687;37.520;15.068;2023-02-01T07:48:32;14.94;43.68
71839;SHT31;59687;37.520;15.068;2023-02-01T07:51:14;14.28;43.30
71839;SHT31;59687;37.520;15.068;2023-02-01T07:53:45;14.37;43.89
71839;SHT31;59687;37.520;15.068;2023-02-01T07:56:19;15.08;42.38
71839;SHT31;59687;37.520;15.068;2023-02-01T07:58:55;15.64;40.35
71839;SHT31;59687;37.520;15.068;2023-02-01T08:01:26;16.24;39.63
71839;SHT31;59687;37.520;15.068;2023-02-01T08:03:58;16.63;38.71
71839;SHT31;59687;37.520;15.068;2023-02-01T08:06:27;16.10;38.38
71839;SHT31;59687;37.520;15.068;2023-02-01T08:08:55;15.84;38.57
71839;SHT31;59687;37.520;15.068;2023-02-01T08:11:23;15.42;39.38
71839;SHT31;59687;37.520;15.068;2023-02-01T08:13:51;15.92;39.14
71839;SHT31;59687;37.520;15.068;2023-02-01T08:16:23;16.60;38.76
71839;SHT31;59687;37.520;15.068;2023-02-01T08:18:56;17.18;36.15
71839;SHT31;59687;37.520;15.068;2023-02-01T08:21:26;16.51;37.32
71839;SHT31;59687;37.520;15.068;2023-02-01T08:24:06;16.19;37.71
71839;SHT31;59687;37.520;15.068;2023-02-01T08:26:40;15.54;40.17
71839;SHT31;59687;37.520;15.068;2023-02-01T08:29:09;15.80;40.33
71839;SHT31;59687;37.520;15.068;2023-02-01T08:31:40;16.26;39.59
71839;SHT31;59687;37.520;15.068;2023-02-01T08:34:11;16.09;39.14
71839;SHT31;59687;37.520;15.068;2023-02-01T08:36:41;15.75;40.30
71839;SHT31;59687;37.520;15.068;2023-02-01T08:39:13;16.15;37.42
71839;SHT31;59687;37.520;15.068;2023-02-01T08:41:42;16.57;36.52
71839;SHT31;59687;37.520;15.068;2023-02-01T08:44:34;16.22;37.70
71839;SHT31;59687;37.520;15.068;2023-02-01T08:47:02;16.29;37.65
71839;SHT31;59687;37.520;15.068;2023-02-01T08:49:32;17.19;36.29
71839;SHT31;59687;37.520;15.068;2023-02-01T08:52:06;18.06;34.78
71839;SHT31;59687;37.520;15.068;2023-02-01T08:54:42;18.06;33.44
71839;SHT31;59687;37.520;15.068;2023-02-01T08:57:21;16.43;36.35
71839;SHT31;59687;37.520;15.068;2023-02-01T08:59:48;16.40;35.83
71839;SHT31;59687;37.520;15.068;2023-02-01T09:02:16;17.29;35.03
71839;SHT31;59687;37.520;15.068;2023-02-01T09:04:47;17.70;33.78
71839;SHT31;59687;37.520;15.068;2023-02-01T09:07:14;17.86;32.33
71839;SHT31;59687;37.520;15.068;2023-02-01T09:09:44;18.14;32.41
71839;SHT31;59687;37.520;15.068;2023-02-01T09:12:14;18.86;31.42
71839;SHT31;59687;37.520;15.068;2023-02-01T09:14:41;18.95;30.21
71839;SHT31;59687;37.520;15.068;2023-02-01T09:17:10;17.93;32.90
71839;SHT31;59687;37.520;15.068;2023-02-01T09:19:37;18.78;31.28
71839;SHT31;59687;37.520;15.068;2023-02-01T09:22:06;18.91;31.48
71839;SHT31;59687;37.520;15.068;2023-02-01T09:24:37;18.16;32.74
71839;SHT31;59687;37.520;15.068;2023-02-01T09:27:05;18.34;32.67
71839;SHT31;59687;37.520;15.068;2023-02-01T09:29:35;19.57;30.31
71839;SHT31;59687;37.520;15.068;2023-02-01T09:32:02;20.54;29.74
71839;SHT31;59687;37.520;15.068;2023-02-01T09:34:30;21.42;28.83
71839;SHT31;59687;37.520;15.068;2023-02-01T09:36:57;20.65;29.52
71839;SHT31;59687;37.520;15.068;2023-02-01T09:39:25;19.75;30.33
71839;SHT31;59687;37.520;15.068;2023-02-01T09:47:22;21.85;27.66
71839;SHT31;59687;37.520;15.068;2023-02-01T09:50:01;20.83;28.00
71839;SHT31;59687;37.520;15.068;2023-02-01T09:52:45;19.87;29.98
71839;SHT31;59687;37.520;15.068;2023-02-01T09:56:02;18.51;31.74
71839;SHT31;59687;37.520;15.068;2023-02-01T09:58:44;17.99;32.48
71839;SHT31;59687;37.520;15.068;2023-02-01T10:01:21;18.51;32.49
71839;SHT31;59687;37.520;15.068;2023-02-01T10:03:51;18.96;33.61
71839;SHT31;59687;37.520;15.068;2023-02-01T10:25:51;22.27;26.61
71839;SHT31;59687;37.520;15.068;2023-02-01T10:28:23;21.78;28.07
71839;SHT31;59687;37.520;15.068;2023-02-01T10:30:54;20.54;29.36
71839;SHT31;59687;37.520;15.068;2023-02-01T10:33:32;22.25;26.82
71839;SHT31;59687;37.520;15.068;2023-02-01T10:36:14;23.86;25.27
71839;SHT31;59687;37.520;15.068;2023-02-01T10:38:46;26.22;22.77
71839;SHT31;59687;37.520;15.068;2023-02-01T10:41:18;23.11;25.22
71839;SHT31;59687;37.520;15.068;2023-02-01T10:43:52;23.99;24.67
71839;SHT31;59687;37.520;15.068;2023-02-01T10:46:22;26.35;22.65
71839;SHT31;59687;37.520;15.068;2023-02-01T10:48:51;26.14;22.03
71839;SHT31;59687;37.520;15.068;2023-02-01T10:51:38;25.73;22.57
71839;SHT31;59687;37.520;15.068;2023-02-01T10:54:16;27.96;21.42
71839;SHT31;59687;37.520;15.068;2023-02-01T10:56:47;30.22;18.94
71839;SHT31;59687;37.520;15.068;2023-02-01T10:59:24;27.62;20.80
71839;SHT31;59687;37.520;15.068;2023-02-01T11:02:02;27.83;19.91
71839;SHT31;59687;37.520;15.068;2023-02-01T11:04:38;26.38;21.15
71839;SHT31;59687;37.520;15.068;2023-02-01T11:07:23;25.89;22.42
71839;SHT31;59687;37.520;15.068;2023-02-01T11:09:54;27.10;22.50
71839;SHT31;59687;37.520;15.068;2023-02-01T11:12:28;27.83;20.80
71839;SHT31;59687;37.520;15.068;2023-02-01T11:17:46;24.75;23.01
71839;SHT31;59687;37.520;15.068;2023-02-01T11:20:18;23.45;25.16
71839;SHT31;59687;37.520;15.068;2023-02-01T11:22:56;24.20;24.28
71839;SHT31;59687;37.520;15.068;2023-02-01T11:25:26;22.61;25.04
71839;SHT31;59687;37.520;15.068;2023-02-01T11:27:55;25.34;22.83
71839;SHT31;59687;37.520;15.068;2023-02-01T11:30:38;26.24;22.39
71839;SHT31;59687;37.520;15.068;2023-02-01T11:33:16;25.37;22.46
71839;SHT31;59687;37.520;15.068;2023-02-01T11:35:44;26.57;22.51
71839;SHT31;59687;37.520;15.068;2023-02-01T11:40:44;29.42;19.42
71839;SHT31;59687;37.520;15.068;2023-02-01T11:43:24;29.26;18.86
71839;SHT31;59687;37.520;15.068;2023-02-01T11:45:58;26.83;18.95
71839;SHT31;59687;37.520;15.068;2023-02-01T11:48:32;26.72;20.55
71839;SHT31;59687;37.520;15.068;2023-02-01T12:24:42;27.35;19.59
71839;SHT31;59687;37.520;15.068;2023-02-01T12:29:58;29.41;18.43
71839;SHT31;59687;37.520;15.068;2023-02-01T12:38:35;26.98;21.01
71839;SHT31;59687;37.520;15.068;2023-02-01T12:43:57;25.55;19.27
71839;SHT31;59687;37.520;15.068;2023-02-01T12:46:41;24.52;19.71
71839;SHT31;59687;37.520;15.068;2023-02-01T12:49:31;23.80;21.10
71839;SHT31;59687;37.520;15.068;2023-02-01T12:52:04;23.35;21.93
71839;SHT31;59687;37.520;15.068;2023-02-01T12:57:53;24.59;21.95
71839;SHT31;59687;37.520;15.068;2023-02-01T13:00:47;25.03;20.75
71839;SHT31;59687;37.520;15.068;2023-02-01T13:03:31;24.84;20.28
71839;SHT31;59687;37.520;15.068;2023-02-01T13:06:06;26.73;19.34
71839;SHT31;59687;37.520;15.068;2023-02-01T13:11:20;25.73;20.37
71839;SHT31;59687;37.520;15.068;2023-02-01T13:13:58;27.46;19.18
71839;SHT31;59687;37.520;15.068;2023-02-01T13:16:35;28.07;18.15
71839;SHT31;59687;37.520;15.068;2023-02-01T13:19:17;29.86;16.72
71839;SHT31;59687;37.520;15.068;2023-02-01T13:21:50;27.45;18.08
71839;SHT31;59687;37.520;15.068;2023-02-01T13:24:32;29.33;18.18
71839;SHT31;59687;37.520;15.068;2023-02-01T13:27:01;28.24;17.75
71839;SHT31;59687;37.520;15.068;2023-02-01T13:29:30;27.50;17.82
71839;SHT31;59687;37.520;15.068;2023-02-01T13:32:08;26.49;19.47
71839;SHT31;59687;37.520;15.068;2023-02-01T13:35:03;23.49;20.99
71839;SHT31;59687;37.520;15.068;2023-02-01T13:40:44;22.33;21.88
71839;SHT31;59687;37.520;15.068;2023-02-01T13:43:25;23.41;22.95
71839;SHT31;59687;37.520;15.068;2023-02-01T13:46:01;22.72;22.47
71839;SHT31;59687;37.520;15.068;2023-02-01T13:51:15;21.17;22.79
71839;SHT31;59687;37.520;15.068;2023-02-01T13:53:48;22.11;23.18
71839;SHT31;59687;37.520;15.068;2023-02-01T13:56:19;20.86;24.55
71839;SHT31;59687;37.520;15.068;2023-02-01T13:58:49;21.85;24.28
71839;SHT31;59687;37.520;15.068;2023-02-01T14:04:04;21.30;23.21
71839;SHT31;59687;37.520;15.068;2023-02-01T14:19:39;21.19;25.71
71839;SHT31;59687;37.520;15.068;2023-02-01T14:24:52;20.30;25.85
71839;SHT31;59687;37.520;15.068;2023-02-01T14:27:24;20.12;25.54
71839;SHT31;59687;37.520;15.068;2023-02-01T14:30:02;19.93;25.55
71839;SHT31;59687;37.520;15.068;2023-02-01T14:32:36;20.30;25.97
71839;SHT31;59687;37.520;15.068;2023-02-01T14:35:16;20.87;24.61
71839;SHT31;59687;37.520;15.068;2023-02-01T14:37:51;21.06;24.59
71839;SHT31;59687;37.520;15.068;2023-02-01T14:40:25;20.65;24.96
71839;SHT31;59687;37.520;15.068;2023-02-01T14:42:53;20.45;25.59
71839;SHT31;59687;37.520;15.068;2023-02-01T14:50:44;20.51;25.59
71839;SHT31;59687;37.520;15.068;2023-02-01T14:53:20;20.44;24.79
71839;SHT31;59687;37.520;15.068;2023-02-01T14:56:09;20.79;25.04
71839;SHT31;59687;37.520;15.068;2023-02-01T15:01:38;20.49;24.82
71839;SHT31;59687;37.520;15.068;2023-02-01T15:04:10;20.13;25.40
71839;SHT31;59687;37.520;15.068;2023-02-01T15:14:31;20.17;34.64
71839;SHT31;59687;37.520;15.068;2023-02-01T15:16:58;19.53;38.27
71839;SHT31;59687;37.520;15.068;2023-02-01T15:19:28;18.58;39.90
71839;SHT31;59687;37.520;15.068;2023-02-01T15:21:59;17.98;41.13
71839;SHT31;59687;37.520;15.068;2023-02-01T15:24:31;17.81;41.41
71839;SHT31;59687;37.520;15.068;2023-02-01T15:27:08;17.77;41.76
71839;SHT31;59687;37.520;15.068;2023-02-01T15:29:39;17.48;42.38
71839;SHT31;59687;37.520;15.068;2023-02-01T15:32:15;17.61;43.30
71839;SHT31;59687;37.520;15.068;2023-02-01T15:34:54;17.13;44.62
71839;SHT31;59687;37.520;15.068;2023-02-01T15:37:23;17.16;44.68
71839;SHT31;59687;37.520;15.068;2023-02-01T15:42:53;16.26;45.46
71839;SHT31;59687;37.520;15.068;2023-02-01T15:45:31;15.91;47.17
71839;SHT31;59687;37.520;15.068;2023-02-01T15:48:01;16.05;47.13
71839;SHT31;59687;37.520;15.068;2023-02-01T15:50:30;15.78;47.70
71839;SHT31;59687;37.520;15.068;2023-02-01T15:53:00;15.49;48.58
71839;SHT31;59687;37.520;15.068;2023-02-01T15:55:36;15.53;48.68
71839;SHT31;59687;37.520;15.068;2023-02-01T15:58:20;14.92;49.75
71839;SHT31;59687;37.520;15.068;2023-02-01T16:01:00;14.94;49.86
71839;SHT31;59687;37.520;15.068;2023-02-01T16:03:38;14.78;50.39
71839;SHT31;59687;37.520;15.068;2023-02-01T16:06:28;14.55;50.77
71839;SHT31;59687;37.520;15.068;2023-02-01T16:09:10;14.15;52.23
71839;SHT31;59687;37.520;15.068;2023-02-01T16:11:52;14.02;52.79
71839;SHT31;59687;37.520;15.068;2023-02-01T16:14:23;13.95;53.63
71839;SHT31;59687;37.520;15.068;2023-02-01T16:16:55;13.63;55.17
71839;SHT31;59687;37.520;15.068;2023-02-01T16:19:25;13.36;55.41
71839;SHT31;59687;37.520;15.068;2023-02-01T16:21:58;13.39;57.47
71839;SHT31;59687;37.520;15.068;2023-02-01T16:24:25;13.09;56.39
71839;SHT31;59687;37.520;15.068;2023-02-01T16:27:00;13.11;56.49
71839;SHT31;59687;37.520;15.068;2023-02-01T16:29:26;12.83;56.69
71839;SHT31;59687;37.520;15.068;2023-02-01T16:31:55;12.88;57.64
71839;SHT31;59687;37.520;15.068;2023-02-01T16:34:22;12.66;58.47
71839;SHT31;59687;37.520;15.068;2023-02-01T16:36:49;12.80;58.16
71839;SHT31;59687;37.520;15.068;2023-02-01T16:39:23;12.70;58.31
71839;SHT31;59687;37.520;15.068;2023-02-01T16:41:53;12.52;58.86
71839;SHT31;59687;37.520;15.068;2023-02-01T16:44:21;12.29;60.01
71839;SHT31;59687;37.520;15.068;2023-02-01T16:46:51;12.24;60.20
71839;SHT31;59687;37.520;15.068;2023-02-01T16:49:30;12.14;60.41
71839;SHT31;59687;37.520;15.068;2023-02-01T16:52:01;12.11;60.94
71839;SHT31;59687;37.520;15.068;2023-02-01T16:54:35;12.20;60.69
71839;SHT31;59687;37.520;15.068;2023-02-01T16:57:07;12.24;60.99
71839;SHT31;59687;37.520;15.068;2023-02-01T16:59:37;12.39;60.60
71839;SHT31;59687;37.520;15.068;2023-02-01T17:02:05;12.30;60.61
71839;SHT31;59687;37.520;15.068;2023-02-01T17:04:33;12.06;61.14
71839;SHT31;59687;37.520;15.068;2023-02-01T17:07:07;12.01;60.06
71839;SHT31;59687;37.520;15.068;2023-02-01T17:09:39;12.29;59.07
71839;SHT31;59687;37.520;15.068;2023-02-01T17:14:55;12.04;57.64
71839;SHT31;59687;37.520;15.068;2023-02-01T17:17:30;11.74;58.34
71839;SHT31;59687;37.520;15.068;2023-02-01T17:20:06;11.67;58.23
71839;SHT31;59687;37.520;15.068;2023-02-01T17:22:36;11.76;57.83
71839;SHT31;59687;37.520;15.068;2023-02-01T17:25:18;12.05;56.79
71839;SHT31;59687;37.520;15.068;2023-02-01T17:27:45;11.73;57.46
71839;SHT31;59687;37.520;15.068;2023-02-01T17:30:17;11.78;56.75
71839;SHT31;59687;37.520;15.068;2023-02-01T17:32:46;11.74;56.09
71839;SHT31;59687;37.520;15.068;2023-02-01T17:35:22;11.65;54.99
71839;SHT31;59687;37.520;15.068;2023-02-01T17:37:50;11.77;55.99
71839;SHT31;59687;37.520;15.068;2023-02-01T17:40:23;11.59;54.39
71839;SHT31;59687;37.520;15.068;2023-02-01T17:42:53;11.69;54.88
71839;SHT31;59687;37.520;15.068;2023-02-01T17:46:19;11.98;53.61
71839;SHT31;59687;37.520;15.068;2023-02-01T17:48:27;11.93;53.36
71839;SHT31;59687;37.520;15.068;2023-02-01T17:50:56;11.74;53.89
71839;SHT31;59687;37.520;15.068;2023-02-01T17:53:27;11.83;53.74
71839;SHT31;59687;37.520;15.068;2023-02-01T17:55:56;11.55;54.05
71839;SHT31;59687;37.520;15.068;2023-02-01T17:58:32;11.66;53.90
71839;SHT31;59687;37.520;15.068;2023-02-01T18:01:02;11.53;54.09
71839;SHT31;59687;37.520;15.068;2023-02-01T18:03:30;11.39;54.83
71839;SHT31;59687;37.520;15.068;2023-02-01T18:06:06;11.22;55.01
71839;SHT31;59687;37.520;15.068;2023-02-01T18:08:41;11.35;54.65
71839;SHT31;59687;37.520;15.068;2023-02-01T18:11:15;11.25;55.18
71839;SHT31;59687;37.520;15.068;2023-02-01T18:13:44;11.52;54.03
71839;SHT31;59687;37.520;15.068;2023-02-01T18:18:50;11.11;55.21
71839;SHT31;59687;37.520;15.068;2023-02-01T18:21:21;11.10;55.50
71839;SHT31;59687;37.520;15.068;2023-02-01T18:23:51;10.93;56.12
71839;SHT31;59687;37.520;15.068;2023-02-01T18:26:20;10.77;56.61
71839;SHT31;59687;37.520;15.068;2023-02-01T18:28:47;10.77;56.77
71839;SHT31;59687;37.520;15.068;2023-02-01T18:31:23;10.97;56.64
71839;SHT31;59687;37.520;15.068;2023-02-01T18:33:55;10.83;56.71
71839;SHT31;59687;37.520;15.068;2023-02-01T18:36:25;10.90;56.83
71839;SHT31;59687;37.520;15.068;2023-02-01T18:38:54;10.59;57.51
71839;SHT31;59687;37.520;15.068;2023-02-01T18:41:24;10.53;58.42
71839;SHT31;59687;37.520;15.068;2023-02-01T18:43:52;10.76;57.79